createdAt,value
2023-05-10T00:01:03.397Z,4.5
2023-05-10T00:06:03.461Z,4.8
2023-05-10T00:11:03.385Z,5.2
2023-05-10T00:16:03.418Z,6
2023-05-10T00:21:07.821Z,6.5
2023-05-10T00:26:03.461Z,6.6
2023-05-10T00:31:03.435Z,6.6
2023-05-10T00:36:03.437Z,6.9
2023-05-10T00:41:03.451Z,7.3
2023-05-10T00:46:03.460Z,7.5
2023-05-10T00:51:04.502Z,9.2
2023-05-10T00:56:03.455Z,10.2
2023-05-10T01:01:03.349Z,11
2023-05-10T01:06:03.377Z,11.6
2023-05-10T01:11:03.435Z,12.6
2023-05-10T01:16:03.461Z,12.7
2023-05-10T01:21:03.457Z,13.2
2023-05-10T01:26:03.434Z,13.4
2023-05-10T01:31:03.462Z,13.5
2023-05-10T01:36:03.494Z,14.4
2023-05-10T01:41:03.445Z,14.7
2023-05-10T01:46:03.392Z,15.4
2023-05-10T01:51:03.469Z,15.4
2023-05-10T01:56:03.459Z,15.5
2023-05-10T02:01:04.593Z,15.6
2023-05-10T02:06:03.473Z,16.6
2023-05-10T02:11:03.484Z,16.9
2023-05-10T02:16:03.415Z,17.2
2023-05-10T02:21:03.438Z,17.2
2023-05-10T02:26:03.423Z,17.4
2023-05-10T02:31:03.436Z,17.7
2023-05-10T02:36:03.463Z,17.4
2023-05-10T02:41:03.450Z,17.8
2023-05-10T02:46:03.516Z,17.4
2023-05-10T02:51:03.454Z,17.3
2023-05-10T02:56:03.461Z,17.3
2023-05-10T03:01:03.459Z,16.6
2023-05-10T03:06:03.469Z,16.5
2023-05-10T03:11:03.508Z,16.5
2023-05-10T03:16:03.498Z,16.1
2023-05-10T03:21:03.448Z,16.1
2023-05-10T03:26:03.467Z,15.4
2023-05-10T03:31:03.477Z,14.6
2023-05-10T03:36:03.466Z,14.4
2023-05-10T03:41:03.454Z,12.7
2023-05-10T03:46:03.444Z,10.2
2023-05-10T03:51:03.442Z,7.6
2023-05-10T03:56:03.525Z,5.2
2023-05-10T04:01:04.042Z,4.2
2023-05-10T04:06:03.792Z,3.6
2023-05-10T04:11:03.503Z,3.3
2023-05-10T04:16:03.491Z,3.2
2023-05-10T04:21:03.493Z,3.2
2023-05-10T04:26:03.439Z,3.2
2023-05-10T04:31:03.581Z,3.2
2023-05-10T04:36:03.429Z,3.2
2023-05-10T04:41:03.449Z,3.2
2023-05-10T04:46:03.473Z,3.1
2023-05-10T04:51:03.447Z,3
2023-05-10T04:56:03.509Z,2.5
2023-05-10T05:01:03.464Z,2
2023-05-10T05:06:03.458Z,2
2023-05-10T05:11:03.434Z,1.4
2023-05-10T05:16:03.507Z,1.4
2023-05-10T05:21:03.501Z,1.4
2023-05-10T05:26:03.485Z,1.4
2023-05-10T05:31:03.515Z,1.3
2023-05-10T05:36:04.594Z,1.3
2023-05-10T05:41:03.494Z,1.3
2023-05-10T05:46:03.475Z,1.3
2023-05-10T05:51:05.138Z,1.3
2023-05-10T05:56:03.496Z,1.4
2023-05-10T06:01:03.489Z,1.4
2023-05-10T06:06:03.477Z,1.4
2023-05-10T06:11:03.442Z,1.4
2023-05-10T06:16:03.491Z,1.4
2023-05-10T06:21:03.468Z,1.6
2023-05-10T06:26:03.470Z,1.6
2023-05-10T06:31:03.526Z,1.6
2023-05-10T06:36:03.460Z,1.6
2023-05-10T06:41:03.507Z,1.6
2023-05-10T06:46:03.502Z,1.7
2023-05-10T06:51:03.519Z,1.7
2023-05-10T06:56:04.426Z,1.9
2023-05-10T07:01:03.518Z,1.9
2023-05-10T07:06:03.504Z,1.9
2023-05-10T07:11:03.474Z,1.9
2023-05-10T07:16:03.480Z,1.9
2023-05-10T07:21:03.489Z,1.8
2023-05-10T07:26:03.515Z,1.8
2023-05-10T07:31:03.554Z,1.7
2023-05-10T07:36:03.550Z,1.8
2023-05-10T07:41:03.509Z,1.8
2023-05-10T07:46:03.482Z,1.8
2023-05-10T07:51:03.498Z,1.8
2023-05-10T07:56:03.512Z,1.8
2023-05-10T08:01:03.473Z,1.8
2023-05-10T08:06:05.800Z,1.8
2023-05-10T08:11:05.772Z,1.8
2023-05-10T08:16:05.805Z,1.7
2023-05-10T08:21:05.847Z,1.7
2023-05-10T08:26:05.834Z,1.7
2023-05-10T08:31:05.854Z,1.7
2023-05-10T08:36:05.815Z,1.7
2023-05-10T08:41:05.815Z,1.7
2023-05-10T08:46:05.833Z,1.7
2023-05-10T08:51:05.835Z,1.8
2023-05-10T08:56:06.670Z,1.7
2023-05-10T09:01:05.811Z,1.8
2023-05-10T09:06:05.844Z,1.8
2023-05-10T09:11:05.845Z,1.9
2023-05-10T09:16:20.848Z,2.1
2023-05-10T09:21:05.856Z,2.3
2023-05-10T09:26:05.822Z,3.6
2023-05-10T09:31:05.833Z,3.6
2023-05-10T09:36:05.793Z,3.6
2023-05-10T09:41:05.864Z,3.6
2023-05-10T09:46:05.834Z,3.2
2023-05-10T09:51:05.808Z,3
2023-05-10T09:56:05.868Z,2.5
2023-05-10T10:01:05.864Z,2.4
2023-05-10T10:06:06.779Z,2.3
2023-05-10T10:11:05.871Z,2.1
2023-05-10T10:16:05.939Z,2.1
2023-05-10T10:21:05.884Z,1.7
2023-05-10T10:26:05.931Z,1.6
2023-05-10T10:31:05.829Z,1.4
2023-05-10T10:36:05.837Z,1.6
2023-05-10T10:41:05.850Z,1.4
2023-05-10T10:46:05.838Z,1.5
2023-05-10T10:51:05.861Z,1.5
2023-05-10T10:56:05.887Z,1.5
2023-05-10T11:01:05.870Z,1.5
2023-05-10T11:06:05.868Z,1.5
2023-05-10T11:11:05.879Z,1.5
2023-05-10T11:16:05.865Z,1.6
2023-05-10T11:21:05.891Z,1.6
2023-05-10T11:26:05.906Z,1.6
2023-05-10T11:31:05.899Z,1.6
2023-05-10T11:36:05.865Z,1.6
2023-05-10T11:41:05.859Z,1.6
2023-05-10T11:46:05.920Z,1.6
2023-05-10T11:51:05.888Z,1.8
2023-05-10T11:56:05.910Z,1.8
2023-05-10T12:01:05.873Z,1.8
2023-05-10T12:06:05.845Z,1.7
2023-05-10T12:11:05.863Z,1.4
2023-05-10T12:16:05.923Z,1.5
2023-05-10T12:21:05.856Z,1.4
2023-05-10T12:26:05.894Z,1.4
2023-05-10T12:31:05.829Z,1.4
2023-05-10T12:36:05.865Z,1.4
2023-05-10T12:41:05.905Z,1.4
2023-05-10T12:46:05.878Z,1.4
2023-05-10T12:51:05.885Z,1.4
2023-05-10T12:56:05.869Z,1.3
2023-05-10T13:01:05.920Z,1.4
2023-05-10T13:06:05.866Z,1.4
2023-05-10T13:11:05.870Z,1.4
2023-05-10T13:16:05.834Z,1.3
2023-05-10T13:21:05.895Z,1.3
2023-05-10T13:26:05.891Z,1.3
2023-05-10T13:31:05.986Z,1.3
2023-05-10T13:36:05.918Z,1.3
2023-05-10T13:41:05.877Z,1.4
2023-05-10T13:46:05.902Z,1.4
2023-05-10T13:51:05.891Z,1.4
2023-05-10T13:56:05.895Z,1.5
2023-05-10T14:01:05.993Z,1.5
2023-05-10T14:06:05.925Z,1.6
2023-05-10T14:11:05.964Z,1.6
2023-05-10T14:16:06.177Z,1.4
2023-05-10T14:21:05.927Z,1.3
2023-05-10T14:26:05.892Z,1.2
2023-05-10T14:31:06.966Z,1.2
2023-05-10T14:36:05.928Z,1.1
2023-05-10T14:41:05.955Z,0.9
2023-05-10T14:46:05.924Z,0.9
2023-05-10T14:51:05.914Z,0.9
2023-05-10T14:56:05.881Z,0.8
2023-05-10T15:01:05.996Z,0.8
2023-05-10T15:06:06.899Z,0.8
2023-05-10T15:11:06.937Z,0.9
2023-05-10T15:16:06.893Z,1
2023-05-10T15:21:06.902Z,1
2023-05-10T15:26:06.901Z,1.1
2023-05-10T15:31:06.955Z,1.1
2023-05-10T15:36:06.898Z,1.1
2023-05-10T15:41:06.913Z,1.1
2023-05-10T15:46:06.953Z,1.2
2023-05-10T15:51:06.898Z,1.4
2023-05-10T15:56:06.956Z,1.4
2023-05-10T16:01:06.955Z,1.6
2023-05-10T16:06:06.931Z,1.7
2023-05-10T16:11:06.997Z,2.1
2023-05-10T16:16:06.977Z,2.5
2023-05-10T16:21:07.087Z,2.5
2023-05-10T16:26:06.934Z,2.5
2023-05-10T16:31:06.969Z,2.7
2023-05-10T16:36:06.932Z,2.5
2023-05-10T16:41:06.945Z,2.5
2023-05-10T16:46:06.919Z,2.5
2023-05-10T16:51:06.933Z,2.5
2023-05-10T16:56:06.953Z,2.4
2023-05-10T17:01:06.902Z,1.8
2023-05-10T17:06:06.966Z,1.7
2023-05-10T17:11:06.947Z,1.6
2023-05-10T17:16:06.998Z,1.4
2023-05-10T17:21:06.941Z,1.4
2023-05-10T17:26:06.917Z,1.4
2023-05-10T17:31:07.009Z,1.4
2023-05-10T17:36:06.957Z,1.4
2023-05-10T17:41:06.957Z,1.4
2023-05-10T17:46:06.990Z,1.6
2023-05-10T17:51:06.979Z,1.8
2023-05-10T17:56:06.958Z,1.8
2023-05-10T18:01:06.969Z,1.7
2023-05-10T18:06:07.013Z,1.7
2023-05-10T18:11:06.966Z,1.8
2023-05-10T18:16:06.936Z,1.8
2023-05-10T18:21:06.962Z,1.8
2023-05-10T18:26:06.970Z,1.8
2023-05-10T18:31:06.987Z,1.8
2023-05-10T18:36:06.964Z,1.9
2023-05-10T18:41:07.056Z,2
2023-05-10T18:46:07.043Z,2
2023-05-10T18:51:06.954Z,2.2
2023-05-10T18:56:06.972Z,2.2
2023-05-10T19:01:06.944Z,2.7
2023-05-10T19:06:06.991Z,3.1
2023-05-10T19:11:07.007Z,3.3
2023-05-10T19:16:07.098Z,3.9
2023-05-10T19:21:08.461Z,3.9
2023-05-10T19:26:07.043Z,4
2023-05-10T19:31:09.021Z,4.2
2023-05-10T19:36:08.076Z,4.4
2023-05-10T19:41:07.017Z,4.7
2023-05-10T19:46:07.028Z,5
2023-05-10T19:51:12.278Z,5.1
2023-05-10T19:56:07.080Z,5.5
2023-05-10T20:01:07.008Z,5.6
2023-05-10T20:06:06.973Z,5.9
2023-05-10T20:11:06.957Z,6
2023-05-10T20:16:07.042Z,6.5
2023-05-10T20:21:07.035Z,6.5
2023-05-10T20:26:07.052Z,6
2023-05-10T20:31:07.062Z,6
2023-05-10T20:36:07.022Z,6
2023-05-10T20:41:06.958Z,6.8
2023-05-10T20:46:07.022Z,6.8
2023-05-10T20:51:06.998Z,7.1
2023-05-10T20:56:07.019Z,7.9
2023-05-10T21:01:07.063Z,7.9
2023-05-10T21:06:06.984Z,7.9
2023-05-10T21:11:07.026Z,8.2
2023-05-10T21:16:07.031Z,8.2
2023-05-10T21:21:06.986Z,8.2
2023-05-10T21:26:06.981Z,8.2
2023-05-10T21:31:06.992Z,8.2
2023-05-10T21:36:06.975Z,8.5
2023-05-10T21:41:06.988Z,8.8
2023-05-10T21:46:07.083Z,8.8
2023-05-10T21:51:07.055Z,9
2023-05-10T21:56:07.014Z,9
2023-05-10T22:01:07.048Z,9.3
2023-05-10T22:06:07.043Z,9.4
2023-05-10T22:11:07.071Z,9.6
2023-05-10T22:16:07.015Z,9.7
2023-05-10T22:21:07.077Z,9.9
2023-05-10T22:26:07.065Z,11.1
2023-05-10T22:31:07.031Z,11.1
2023-05-10T22:36:07.030Z,11.1
2023-05-10T22:41:07.040Z,11.1
2023-05-10T22:46:07.071Z,11.1
2023-05-10T22:51:07.035Z,10
2023-05-10T22:56:07.046Z,10
2023-05-10T23:01:07.055Z,9.6
2023-05-10T23:06:07.090Z,8.4
2023-05-10T23:11:07.055Z,8.3
2023-05-10T23:16:07.014Z,8.3
2023-05-10T23:21:07.066Z,8.3
2023-05-10T23:26:07.055Z,8.3
2023-05-10T23:31:07.083Z,8.4
2023-05-10T23:36:07.057Z,8.4
2023-05-10T23:41:07.068Z,8.9
2023-05-10T23:46:07.069Z,9.1
2023-05-10T23:51:07.075Z,9.2
2023-05-10T23:56:06.987Z,9.4
